Time;durP1;ratioP1;P1;durP2;ratioP2;P2;SDS_P1;SDS_P2;PMS_P1;PMS_P2;Temp;Humidity;BMP_temperature;BMP_pressure;BME280_temperature;BME280_humidity;BME280_pressure;Samples;Min_cycle;Max_cycle;Signal;HPM_P1;HPM_P2
2022/03/04 00:00:13;;;;;;;13.67;7.60;;;;;;;-0.04;100.00;97750.61;1770313;81;21030;-72
2022/03/04 00:02:40;;;;;;;14.33;7.60;;;;;;;-0.04;100.00;97747.45;1770317;81;21519;-70
2022/03/04 00:05:07;;;;;;;13.77;7.00;;;;;;;-0.04;100.00;97748.78;1771151;80;21473;-71
2022/03/04 00:07:34;;;;;;;14.13;7.80;;;;;;;-0.05;100.00;97740.49;1772475;81;20967;-70
2022/03/04 00:10:01;;;;;;;12.13;6.97;;;;;;;-0.05;100.00;97744.47;1772454;80;21017;-71
2022/03/04 00:12:29;;;;;;;13.50;7.70;;;;;;;-0.05;100.00;97744.47;1772252;81;21006;-70
2022/03/04 00:14:55;;;;;;;13.87;7.70;;;;;;;-0.03;100.00;97739.01;1772140;81;21515;-70
2022/03/04 00:17:22;;;;;;;13.00;7.60;;;;;;;-0.03;100.00;97741.66;1771089;81;21018;-71
2022/03/04 00:19:48;;;;;;;10.73;6.93;;;;;;;-0.03;100.00;97743.81;1770672;81;21049;-71
2022/03/04 00:22:16;;;;;;;14.77;7.73;;;;;;;-0.03;100.00;97740.33;1770267;81;21473;-70
2022/03/04 00:24:42;;;;;;;13.73;7.60;;;;;;;-0.05;100.00;97741.00;1770259;81;20975;-71
2022/03/04 00:27:09;;;;;;;14.07;8.00;;;;;;;-0.05;100.00;97739.67;1770460;81;21073;-69
2022/03/04 00:29:36;;;;;;;15.07;7.20;;;;;;;-0.06;100.00;97734.83;1770287;81;21014;-71
2022/03/04 00:32:04;;;;;;;12.87;7.67;;;;;;;-0.08;100.00;97740.80;1770477;81;21065;-71
2022/03/04 00:34:30;;;;;;;14.27;7.47;;;;;;;-0.08;100.00;97742.64;1770268;80;21453;-72
2022/03/04 00:36:57;;;;;;;14.43;7.83;;;;;;;-0.10;100.00;97739.31;1770278;80;21042;-72
2022/03/04 00:39:24;;;;;;;13.90;7.73;;;;;;;-0.12;100.00;97742.12;1770387;80;21431;-71
2022/03/04 00:41:51;;;;;;;14.83;7.73;;;;;;;-0.14;100.00;97741.45;1770722;81;21488;-70
2022/03/04 00:44:18;;;;;;;12.77;6.87;;;;;;;-0.16;100.00;97738.61;1770421;81;21476;-72
2022/03/04 00:46:44;;;;;;;11.63;6.70;;;;;;;-0.17;100.00;97743.09;1770537;80;21046;-70
2022/03/04 00:49:11;;;;;;;11.20;6.97;;;;;;;-0.20;100.00;97733.60;1770397;81;21002;-70
2022/03/04 00:51:39;;;;;;;14.00;7.40;;;;;;;-0.21;100.00;97741.25;1770669;81;21026;-71
2022/03/04 00:54:05;;;;;;;11.57;6.63;;;;;;;-0.21;100.00;97741.25;1770633;80;21040;-70
2022/03/04 00:56:32;;;;;;;14.27;7.60;;;;;;;-0.21;100.00;97744.41;1748833;81;21453;-69
2022/03/04 00:58:59;;;;;;;13.07;7.43;;;;;;;-0.23;100.00;97740.58;1748729;81;21049;-71
2022/03/04 01:01:26;;;;;;;12.90;7.10;;;;;;;-0.22;100.00;97748.87;1770541;81;21014;-70
2022/03/04 01:03:53;;;;;;;12.40;7.00;;;;;;;-0.23;100.00;97744.56;1770626;81;21487;-71
2022/03/04 01:06:19;;;;;;;12.73;7.30;;;;;;;-0.24;100.00;97738.91;1770389;80;21271;-71
2022/03/04 01:08:46;;;;;;;13.43;7.40;;;;;;;-0.24;100.00;97740.73;1770797;81;21468;-71
2022/03/04 01:11:13;;;;;;;15.03;8.03;;;;;;;-0.24;100.00;97738.08;1770521;81;21049;-70
2022/03/04 01:13:39;;;;;;;16.43;8.23;;;;;;;-0.27;100.00;97737.89;1770658;80;21022;-70
2022/03/04 01:16:06;;;;;;;14.80;7.40;;;;;;;-0.30;100.00;97737.37;1770434;81;21508;-71
2022/03/04 01:18:33;;;;;;;15.20;7.77;;;;;;;-0.30;100.00;97742.69;1770349;80;21026;-70
2022/03/04 01:20:59;;;;;;;15.23;7.77;;;;;;;-0.32;100.00;97749.51;1770413;80;20998;-71
2022/03/04 01:23:26;;;;;;;15.70;8.07;;;;;;;-0.33;100.00;97740.37;1770635;81;21021;-71
2022/03/04 01:25:53;;;;;;;14.40;7.97;;;;;;;-0.36;100.00;97741.50;1770479;81;21010;-71
2022/03/04 01:28:20;;;;;;;13.47;7.63;;;;;;;-0.39;100.00;97745.79;1770579;81;21018;-70
2022/03/04 01:30:48;;;;;;;15.17;8.00;;;;;;;-0.37;100.00;97746.48;1770537;81;21002;-71
2022/03/04 01:33:14;;;;;;;15.37;7.93;;;;;;;-0.37;100.00;97746.48;1770246;81;21018;-71
2022/03/04 01:35:41;;;;;;;15.43;8.50;;;;;;;-0.40;100.00;97742.31;1770611;80;22192;-71
2022/03/04 01:38:08;;;;;;;16.07;8.67;;;;;;;-0.39;100.00;97759.92;1794535;80;21067;-71
2022/03/04 01:40:34;;;;;;;17.50;9.13;;;;;;;-0.40;100.00;97751.61;1795618;80;20957;-71
2022/03/04 01:43:01;;;;;;;16.33;8.77;;;;;;;-0.41;100.00;97745.97;1795646;80;20985;-71
2022/03/04 01:45:28;;;;;;;17.00;8.83;;;;;;;-0.41;100.00;97753.94;1795569;80;21032;-72
2022/03/04 01:47:55;;;;;;;17.83;9.23;;;;;;;-0.41;100.00;97745.97;1795688;80;20993;-71
2022/03/04 01:50:23;;;;;;;16.53;8.80;;;;;;;-0.40;100.00;97752.11;1795479;80;21024;-71
2022/03/04 01:52:50;;;;;;;16.40;8.77;;;;;;;-0.41;100.00;97742.47;1792711;78;21008;-71
2022/03/04 01:55:16;;;;;;;15.97;8.50;;;;;;;-0.42;100.00;97735.00;1795772;80;20977;-71
2022/03/04 01:57:43;;;;;;;16.00;8.50;;;;;;;-0.41;100.00;97741.99;1795712;80;21009;-71
2022/03/04 02:00:11;;;;;;;17.67;9.10;;;;;;;-0.42;100.00;97738.98;1795375;80;21040;-71
2022/03/04 02:02:42;;;;;;;16.50;8.93;;;;;;;-0.40;100.00;97744.97;1795581;78;20977;-70
2022/03/04 02:05:14;;;;;;;17.90;9.30;;;;;;;-0.40;100.00;97744.97;1795556;80;21020;-71
2022/03/04 02:07:40;;;;;;;17.32;9.25;;;;;;;-0.42;100.00;97736.33;1795667;80;21008;-71
2022/03/04 02:10:08;;;;;;;17.63;9.50;;;;;;;-0.42;100.00;97739.49;1795605;80;21000;-71
2022/03/04 02:12:36;;;;;;;16.27;8.77;;;;;;;-0.43;100.00;97732.00;1795654;80;21032;-70
2022/03/04 02:15:05;;;;;;;18.10;9.33;;;;;;;-0.42;100.00;97731.52;1795398;79;21016;-71
2022/03/04 02:17:32;;;;;;;17.03;9.10;;;;;;;-0.42;100.00;97719.07;1761007;81;20997;-70
2022/03/04 02:19:59;;;;;;;16.23;8.90;;;;;;;-0.43;100.00;97718.72;1760991;80;21048;-71
2022/03/04 02:22:25;;;;;;;16.53;9.07;;;;;;;-0.43;100.00;97712.09;1760857;81;20997;-70
2022/03/04 02:24:52;;;;;;;16.27;8.63;;;;;;;-0.41;100.00;97710.60;1760913;81;21005;-70
2022/03/04 02:27:18;;;;;;;17.67;9.10;;;;;;;-0.41;100.00;97705.29;1760977;81;21025;-72
2022/03/04 02:29:45;;;;;;;17.83;8.73;;;;;;;-0.42;100.00;97699.66;1760747;81;21428;-70
2022/03/04 02:32:11;;;;;;;17.30;8.57;;;;;;;-0.41;100.00;97684.05;1760890;81;21530;-71
2022/03/04 02:34:37;;;;;;;17.13;9.03;;;;;;;-0.41;100.00;97679.59;1760826;81;21531;-70
2022/03/04 02:37:04;;;;;;;16.90;9.07;;;;;;;-0.40;100.00;97671.95;1744504;81;21046;-71
2022/03/04 02:39:31;;;;;;;15.13;8.33;;;;;;;-0.40;100.00;97675.11;1721283;83;21101;-71
2022/03/04 02:41:57;;;;;;;16.00;8.17;;;;;;;-0.40;100.00;97677.26;1721285;83;21269;-71
2022/03/04 02:44:24;;;;;;;16.23;8.20;;;;;;;-0.40;100.00;97675.93;1721028;83;21026;-71
2022/03/04 02:46:50;;;;;;;15.40;8.17;;;;;;;-0.41;100.00;97672.95;1721226;83;21014;-71
2022/03/04 02:49:17;;;;;;;16.23;8.47;;;;;;;-0.40;100.00;97669.80;1721275;83;21078;-71
2022/03/04 02:51:43;;;;;;;15.37;8.60;;;;;;;-0.38;100.00;97673.12;1721441;83;20998;-70
2022/03/04 02:54:10;;;;;;;15.50;8.20;;;;;;;-0.38;100.00;97670.46;1721341;83;21074;-70
2022/03/04 02:56:36;;;;;;;17.47;8.77;;;;;;;-0.40;100.00;97663.98;1721357;82;21005;-71
2022/03/04 02:59:03;;;;;;;16.47;8.50;;;;;;;-0.40;100.00;97660.00;1721395;83;21066;-71
2022/03/04 03:01:29;;;;;;;16.93;8.70;;;;;;;-0.39;100.00;97656.36;1721460;83;21006;-70
2022/03/04 03:03:56;;;;;;;16.33;7.97;;;;;;;-0.37;100.00;97657.53;1697488;83;21104;-71
2022/03/04 03:06:22;;;;;;;18.47;8.60;;;;;;;-0.37;100.00;97658.86;1721249;83;21075;-71
2022/03/04 03:08:49;;;;;;;17.47;9.40;;;;;;;-0.36;100.00;97661.84;1721323;82;21517;-69
2022/03/04 03:11:16;;;;;;;17.57;9.27;;;;;;;-0.35;100.00;97665.31;1721291;83;21472;-70
2022/03/04 03:13:42;;;;;;;16.63;8.27;;;;;;;-0.34;100.00;97659.02;1734817;81;21073;-71
2022/03/04 03:16:09;;;;;;;17.17;9.13;;;;;;;-0.34;100.00;97655.04;1770889;81;20981;-71
2022/03/04 03:18:37;;;;;;;17.33;9.00;;;;;;;-0.34;100.00;97657.70;1770716;81;21093;-70
2022/03/04 03:21:03;;;;;;;18.07;8.97;;;;;;;-0.34;100.00;97653.72;1771323;81;21015;-77
2022/03/04 03:23:29;;;;;;;17.20;8.67;;;;;;;-0.33;100.00;97662.03;1772078;81;21022;-77
2022/03/04 03:25:56;;;;;;;18.07;8.93;;;;;;;-0.33;100.00;97660.20;1771874;80;21017;-78
2022/03/04 03:28:22;;;;;;;16.43;8.50;;;;;;;-0.31;100.00;97656.06;1771827;81;21495;-77
2022/03/04 03:30:49;;;;;;;16.97;8.43;;;;;;;-0.30;100.00;97659.03;1743915;81;21006;-78
2022/03/04 03:33:16;;;;;;;17.23;8.30;;;;;;;-0.29;100.00;97653.56;1771843;81;21017;-76
2022/03/04 03:35:43;;;;;;;16.67;8.10;;;;;;;-0.29;100.00;97656.22;1772033;80;20997;-77
2022/03/04 03:38:09;;;;;;;15.43;7.50;;;;;;;-0.28;100.00;97659.73;1791161;80;21025;-77
2022/03/04 03:40:36;;;;;;;16.07;8.30;;;;;;;-0.29;100.00;97652.23;1796709;80;21029;-78
2022/03/04 03:43:03;;;;;;;17.87;8.77;;;;;;;-0.27;100.00;97656.06;1796859;80;21021;-77
2022/03/04 03:45:29;;;;;;;16.43;8.47;;;;;;;-0.26;100.00;97656.41;1796821;80;21017;-78
2022/03/04 03:47:56;;;;;;;16.70;7.97;;;;;;;-0.27;100.00;97654.73;1796790;79;21028;-79
2022/03/04 03:50:22;;;;;;;17.67;8.70;;;;;;;-0.27;100.00;97660.05;1796687;80;20997;-77
2022/03/04 03:52:49;;;;;;;16.13;7.90;;;;;;;-0.27;100.00;97665.36;1796764;80;20973;-77
2022/03/04 03:55:15;;;;;;;15.53;7.77;;;;;;;-0.26;100.00;97664.38;1796791;80;21016;-77
2022/03/04 03:57:42;;;;;;;16.57;8.60;;;;;;;-0.26;100.00;97663.88;1796773;80;21089;-77
2022/03/04 04:00:10;;;;;;;15.70;8.27;;;;;;;-0.24;100.00;97666.38;1796817;80;21064;-78
2022/03/04 04:02:40;;;;;;;16.43;8.67;;;;;;;-0.25;100.00;97666.88;1796523;80;20989;-76
2022/03/04 04:05:15;;;;;;;17.10;8.43;;;;;;;-0.25;100.00;97666.02;1796650;78;21019;-78
2022/03/04 04:07:41;;;;;;;15.60;8.27;;;;;;;-0.26;100.00;97671.84;1796797;80;21043;-77
2022/03/04 04:10:09;;;;;;;20.23;8.53;;;;;;;-0.26;100.00;97670.52;1796748;80;21036;-76
2022/03/04 04:12:35;;;;;;;14.53;7.60;;;;;;;-0.25;100.00;97668.68;1797030;80;21012;-78
2022/03/04 04:15:02;;;;;;;15.53;7.90;;;;;;;-0.25;100.00;97673.98;1797048;80;21542;-77
2022/03/04 04:17:29;;;;;;;15.70;8.00;;;;;;;-0.25;100.00;97674.84;1796905;80;21020;-77
2022/03/04 04:19:56;;;;;;;17.93;8.53;;;;;;;-0.25;100.00;97689.45;1797025;80;21040;-78
2022/03/04 04:22:23;;;;;;;15.87;8.17;;;;;;;-0.25;100.00;97686.80;1796939;80;21548;-76
2022/03/04 04:24:49;;;;;;;16.90;8.33;;;;;;;-0.25;100.00;97697.42;1796867;80;21004;-77
2022/03/04 04:27:16;;;;;;;16.37;8.27;;;;;;;-0.25;100.00;97692.58;1796863;78;21017;-76
2022/03/04 04:29:43;;;;;;;18.23;8.63;;;;;;;-0.25;100.00;97703.20;1796780;80;20993;-78
2022/03/04 04:32:09;;;;;;;17.67;8.27;;;;;;;-0.25;100.00;97710.70;1795579;80;21498;-70
2022/03/04 04:34:36;;;;;;;17.07;8.47;;;;;;;-0.25;100.00;97708.05;1795494;80;21024;-70
2022/03/04 04:37:03;;;;;;;16.23;8.17;;;;;;;-0.23;100.00;97715.35;1791280;79;21057;-70
2022/03/04 04:39:30;;;;;;;17.17;8.70;;;;;;;-0.24;100.00;97722.97;1795278;80;20997;-71
2022/03/04 04:41:56;;;;;;;16.17;8.60;;;;;;;-0.22;100.00;97723.64;1795616;80;20965;-69
2022/03/04 04:44:23;;;;;;;17.27;8.67;;;;;;;-0.22;100.00;97732.11;1795581;80;21478;-69
2022/03/04 04:46:50;;;;;;;18.97;8.60;;;;;;;-0.23;100.00;97726.45;1795833;79;21064;-71
2022/03/04 04:49:17;;;;;;;17.63;8.33;;;;;;;-0.23;100.00;97731.28;1795569;80;21472;-70
2022/03/04 04:51:43;;;;;;;18.17;8.87;;;;;;;-0.21;100.00;97733.79;1795606;80;20988;-71
2022/03/04 04:54:10;;;;;;;18.73;9.43;;;;;;;-0.22;100.00;97732.94;1795708;80;21056;-71
2022/03/04 04:56:36;;;;;;;16.93;8.43;;;;;;;-0.21;100.00;97739.92;1795590;78;21060;-70
2022/03/04 04:59:03;;;;;;;17.73;8.10;;;;;;;-0.21;100.00;97739.10;1795713;80;21167;-72
2022/03/04 05:01:29;;;;;;;15.97;8.20;;;;;;;-0.20;100.00;97744.73;1795775;80;21052;-70
2022/03/04 05:03:56;;;;;;;18.73;8.97;;;;;;;-0.20;100.00;97751.38;1795680;78;21071;-71
2022/03/04 05:06:23;;;;;;;18.07;9.13;;;;;;;-0.19;100.00;97761.02;1795498;80;21087;-71
2022/03/04 05:08:50;;;;;;;17.67;8.13;;;;;;;-0.18;100.00;97764.50;1797059;80;20977;-70
2022/03/04 05:11:17;;;;;;;18.00;9.13;;;;;;;-0.17;100.00;97760.36;1797114;80;21018;-70
2022/03/04 05:13:43;;;;;;;18.20;8.97;;;;;;;-0.18;100.00;97769.30;1796567;80;21530;-70
2022/03/04 05:16:10;;;;;;;19.17;9.40;;;;;;;-0.18;100.00;97770.64;1795802;80;21065;-70
2022/03/04 05:18:37;;;;;;;16.93;8.80;;;;;;;-0.17;100.00;97776.30;1795957;80;21013;-70
2022/03/04 05:21:04;;;;;;;17.27;8.67;;;;;;;-0.16;100.00;97776.65;1795794;80;20965;-71
2022/03/04 05:26:16;;;;;;;15.93;8.20;;;;;;;-0.14;100.00;97783.10;1795803;80;20945;-70
2022/03/04 05:28:43;;;;;;;17.40;8.60;;;;;;;-0.15;100.00;97779.62;1795561;80;21474;-71
2022/03/04 05:31:09;;;;;;;19.20;9.97;;;;;;;-0.13;100.00;97779.47;1795564;80;20981;-70
2022/03/04 05:33:36;;;;;;;16.33;8.50;;;;;;;-0.14;100.00;97785.28;1795487;80;21025;-72
2022/03/04 05:36:02;;;;;;;17.20;8.30;;;;;;;-0.14;100.00;97791.07;1795646;80;20989;-70
2022/03/04 05:38:29;;;;;;;17.30;8.53;;;;;;;-0.11;100.00;97798.23;1784120;80;21524;-70
2022/03/04 05:40:56;;;;;;;18.07;8.87;;;;;;;-0.10;100.00;97800.41;1770402;80;21066;-71
2022/03/04 05:43:22;;;;;;;18.20;8.63;;;;;;;-0.08;100.00;97804.56;1770362;80;21457;-70
2022/03/04 05:45:49;;;;;;;16.33;8.50;;;;;;;-0.06;100.00;97803.08;1770521;81;21026;-70
2022/03/04 05:48:16;;;;;;;17.37;8.47;;;;;;;-0.06;100.00;97799.92;1770442;80;21030;-71
2022/03/04 05:50:43;;;;;;;15.50;7.67;;;;;;;-0.05;100.00;97804.76;1748999;81;21013;-70
2022/03/04 05:53:10;;;;;;;16.67;7.80;;;;;;;-0.04;100.00;97802.42;1770352;81;21053;-69
2022/03/04 05:55:37;;;;;;;16.60;8.27;;;;;;;-0.03;100.00;97806.75;1770418;81;20998;-70
2022/03/04 05:58:03;;;;;;;18.00;8.60;;;;;;;-0.04;100.00;97810.39;1770459;81;21069;-71
2022/03/04 06:00:30;;;;;;;16.17;8.10;;;;;;;-0.04;100.00;97820.52;1770514;81;21042;-72
2022/03/04 06:02:57;;;;;;;16.27;8.03;;;;;;;-0.02;100.00;97826.53;1770164;80;21536;-69
2022/03/04 06:05:24;;;;;;;16.83;7.93;;;;;;;0.01;100.00;97829.35;1770535;81;21025;-71
2022/03/04 06:07:51;;;;;;;15.43;7.90;;;;;;;0.05;100.00;97837.84;1770433;80;21025;-70
2022/03/04 06:10:17;;;;;;;14.77;7.60;;;;;;;0.08;100.00;97834.37;1770566;80;21468;-72
2022/03/04 06:12:45;;;;;;;21.37;11.23;;;;;;;0.08;100.00;97837.02;1770359;80;21017;-71
2022/03/04 06:15:11;;;;;;;19.13;10.93;;;;;;;0.09;100.00;97843.16;1770533;80;21522;-71
2022/03/04 06:17:38;;;;;;;32.50;20.77;;;;;;;0.10;100.00;97849.66;1770528;80;21002;-70
2022/03/04 06:20:06;;;;;;;92.43;54.80;;;;;;;0.12;100.00;97858.80;1770536;81;20991;-69
2022/03/04 06:22:33;;;;;;;46.73;33.43;;;;;;;0.15;100.00;97859.31;1770387;80;21026;-68
2022/03/04 06:25:00;;;;;;;41.30;27.60;;;;;;;0.18;100.00;97855.02;1770298;80;21026;-68
2022/03/04 06:27:26;;;;;;;59.50;32.77;;;;;;;0.20;100.00;97854.05;1770567;80;21531;-70
2022/03/04 06:29:53;;;;;;;28.67;17.40;;;;;;;0.22;100.00;97861.36;1778259;80;20990;-70
2022/03/04 06:32:20;;;;;;;43.73;28.57;;;;;;;0.25;100.00;97862.34;1781860;80;20996;-76
2022/03/04 06:34:46;;;;;;;26.70;16.73;;;;;;;0.29;100.00;97867.70;1781875;80;20987;-75
2022/03/04 06:37:13;;;;;;;29.67;21.47;;;;;;;0.30;100.00;97866.69;1781501;79;21039;-75
2022/03/04 06:39:40;;;;;;;38.20;29.30;;;;;;;0.32;100.00;97877.52;1780598;80;21015;-76
2022/03/04 06:42:07;;;;;;;22.70;13.90;;;;;;;0.33;100.00;97873.85;1781389;80;21040;-74
2022/03/04 06:44:34;;;;;;;25.93;13.87;;;;;;;0.37;100.00;97875.70;1781673;80;20963;-73
2022/03/04 06:47:01;;;;;;;53.47;24.97;;;;;;;0.40;100.00;97878.55;1780897;80;21585;-74
2022/03/04 06:49:28;;;;;;;57.63;29.17;;;;;;;0.41;100.00;97876.20;1781954;80;21016;-78
2022/03/04 06:51:55;;;;;;;50.97;27.10;;;;;;;0.42;100.00;97878.71;1782412;80;20979;-77
2022/03/04 06:54:22;;;;;;;59.10;40.30;;;;;;;0.43;100.00;97879.57;1781796;80;20971;-78
2022/03/04 06:56:49;;;;;;;30.43;19.67;;;;;;;0.43;100.00;97871.59;1782300;79;21019;-78
2022/03/04 06:59:16;;;;;;;21.37;13.43;;;;;;;0.45;100.00;97877.58;1782071;80;21023;-77
2022/03/04 07:01:43;;;;;;;18.90;10.80;;;;;;;0.47;100.00;97872.93;1782135;80;20978;-78
2022/03/04 07:04:10;;;;;;;21.93;13.40;;;;;;;0.49;100.00;97869.10;1783071;80;20961;-78
2022/03/04 07:06:36;;;;;;;20.07;11.20;;;;;;;0.51;100.00;97873.79;1783148;80;20967;-78
2022/03/04 07:09:03;;;;;;;17.90;9.63;;;;;;;0.54;100.00;97881.93;1783508;79;20957;-78
2022/03/04 07:11:31;;;;;;;18.87;9.50;;;;;;;0.54;100.00;97880.60;1782622;80;21045;-76
2022/03/04 07:13:57;;;;;;;18.83;9.73;;;;;;;0.56;100.00;97879.94;1782829;80;20975;-77
2022/03/04 07:16:24;;;;;;;18.67;9.87;;;;;;;0.59;100.00;97877.47;1782705;79;21028;-76
2022/03/04 07:18:53;;;;;;;50.07;25.40;;;;;;;0.63;100.00;97879.63;1782584;79;21518;-77
2022/03/04 07:21:20;;;;;;;25.20;12.77;;;;;;;0.67;100.00;97880.14;1782640;80;20991;-78
2022/03/04 07:23:46;;;;;;;28.10;16.23;;;;;;;0.71;100.00;97879.67;1782899;80;21054;-78
2022/03/04 07:26:13;;;;;;;22.97;12.93;;;;;;;0.78;100.00;97881.67;1782904;80;20975;-77
2022/03/04 07:28:40;;;;;;;22.53;12.90;;;;;;;0.84;100.00;97885.03;1782997;80;21006;-77
2022/03/04 07:31:07;;;;;;;26.53;13.50;;;;;;;0.87;100.00;97877.55;1782671;80;21007;-75
2022/03/04 07:33:36;;;;;;;20.33;11.23;;;;;;;0.91;100.00;97886.87;1782643;80;21002;-78
2022/03/04 07:36:04;;;;;;;20.07;11.00;;;;;;;0.93;100.00;97883.55;1782711;80;21053;-78
2022/03/04 07:38:31;;;;;;;18.20;9.17;;;;;;;0.95;100.00;97879.39;1783275;80;21011;-77
2022/03/04 07:40:58;;;;;;;20.53;11.07;;;;;;;0.99;100.00;97889.22;1782905;80;21662;-77
2022/03/04 07:43:28;;;;;;;18.07;9.73;;;;;;;1.01;100.00;97887.22;1783322;80;20994;-75
2022/03/04 07:45:55;;;;;;;19.87;10.83;;;;;;;1.01;100.00;97885.41;1782528;80;21057;-78
2022/03/04 07:48:22;;;;;;;18.93;9.53;;;;;;;1.02;100.00;97891.05;1782719;79;21003;-76
2022/03/04 07:50:48;;;;;;;17.70;9.47;;;;;;;1.04;100.00;97893.05;1782891;80;21042;-79
2022/03/04 07:53:15;;;;;;;18.77;10.30;;;;;;;1.07;100.00;97903.88;1782412;79;21011;-68
2022/03/04 07:55:42;;;;;;;30.57;18.17;;;;;;;1.03;100.00;97906.03;1781608;79;21498;-69
2022/03/04 07:58:09;;;;;;;23.53;12.17;;;;;;;1.01;100.00;97904.04;1781498;80;21034;-68
2022/03/04 08:00:37;;;;;;;20.23;11.57;;;;;;;1.06;100.00;97913.70;1781744;79;20999;-68
2022/03/04 08:03:03;;;;;;;21.43;11.47;;;;;;;1.11;100.00;97911.86;1781602;80;20999;-69
2022/03/04 08:05:30;;;;;;;16.40;8.90;;;;;;;1.15;100.00;97918.52;1781415;80;21090;-66
2022/03/04 08:07:57;;;;;;;15.03;7.57;;;;;;;1.16;100.00;97918.05;1750753;82;21011;-67
2022/03/04 08:10:24;;;;;;;14.63;7.50;;;;;;;1.18;100.00;97924.03;1714992;84;21579;-68
2022/03/04 08:12:51;;;;;;;14.10;7.87;;;;;;;1.20;100.00;97920.70;1714969;83;21503;-67
2022/03/04 08:15:18;;;;;;;15.27;7.87;;;;;;;1.20;100.00;97925.52;1779683;80;21030;-66
2022/03/04 08:17:47;;;;;;;17.00;8.10;;;;;;;1.22;100.00;97931.55;1781477;80;21019;-66
2022/03/04 08:20:15;;;;;;;16.17;8.47;;;;;;;1.23;100.00;97929.20;1781277;80;21532;-68
2022/03/04 08:22:43;;;;;;;15.43;8.20;;;;;;;1.25;100.00;97923.71;1781500;80;21062;-66
2022/03/04 08:25:10;;;;;;;17.27;9.10;;;;;;;1.29;100.00;97935.69;1781656;80;21030;-67
2022/03/04 08:27:40;;;;;;;16.70;8.60;;;;;;;1.33;100.00;97937.05;1781648;80;21073;-67
2022/03/04 08:30:09;;;;;;;14.97;8.43;;;;;;;1.35;100.00;97936.86;1781713;79;20985;-66
2022/03/04 08:32:36;;;;;;;16.70;9.00;;;;;;;1.37;100.00;97938.89;1781514;79;21008;-67
2022/03/04 08:35:04;;;;;;;18.13;9.27;;;;;;;1.39;100.00;97942.22;1781699;79;21067;-67
2022/03/04 08:37:32;;;;;;;15.90;7.70;;;;;;;1.39;100.00;97945.70;1781703;79;21036;-67
2022/03/04 08:39:59;;;;;;;16.77;8.13;;;;;;;1.37;100.00;97944.21;1787636;79;21030;-68
2022/03/04 08:42:26;;;;;;;16.83;8.10;;;;;;;1.33;100.00;97937.88;1789852;79;21027;-66
2022/03/04 08:44:54;;;;;;;15.70;8.43;;;;;;;1.37;100.00;97946.88;1789751;80;21002;-69
2022/03/04 08:47:21;;;;;;;16.00;8.80;;;;;;;1.43;100.00;97947.03;1789758;80;21563;-68
2022/03/04 08:49:48;;;;;;;17.90;9.87;;;;;;;1.48;100.00;97938.56;1790027;80;21066;-69
2022/03/04 08:52:15;;;;;;;18.43;9.77;;;;;;;1.50;100.00;97938.72;1789712;80;21150;-67
2022/03/04 08:54:42;;;;;;;18.37;9.53;;;;;;;1.56;100.00;97945.71;1752550;82;20994;-68
2022/03/04 08:57:09;;;;;;;19.00;10.83;;;;;;;1.58;100.00;97944.56;1752800;82;21022;-81
2022/03/04 08:59:36;;;;;;;21.83;11.33;;;;;;;1.57;100.00;97946.89;1791342;80;20960;-76
2022/03/04 09:02:04;;;;;;;32.80;15.23;;;;;;;1.53;100.00;97947.40;1791529;80;21483;-78
2022/03/04 09:04:31;;;;;;;55.60;18.60;;;;;;;1.50;100.00;97944.04;1791842;80;21036;-78
2022/03/04 09:07:00;;;;;;;31.57;13.53;;;;;;;1.50;100.00;97955.20;1791552;80;21040;-77
2022/03/04 09:09:29;;;;;;;53.63;22.20;;;;;;;1.49;100.00;97955.71;1791549;79;21075;-80
2022/03/04 09:11:58;;;;;;;48.20;21.03;;;;;;;1.51;100.00;97956.88;1791190;80;21103;-76
2022/03/04 09:14:26;;;;;;;40.03;20.97;;;;;;;1.50;100.00;97958.69;1791337;80;20945;-76
2022/03/04 09:16:53;;;;;;;22.60;12.70;;;;;;;1.50;100.00;97952.54;1791273;80;21023;-75
2022/03/04 09:19:20;;;;;;;16.73;9.03;;;;;;;1.50;100.00;97954.70;1791340;80;21043;-77
2022/03/04 09:21:48;;;;;;;18.80;9.43;;;;;;;1.51;100.00;97961.70;1791171;80;21063;-75
2022/03/04 09:24:14;;;;;;;19.47;10.63;;;;;;;1.50;100.00;97957.87;1791046;80;21039;-76
2022/03/04 09:26:43;;;;;;;18.13;9.43;;;;;;;1.51;100.00;97959.55;1791390;80;21478;-76
2022/03/04 09:29:13;;;;;;;19.77;10.70;;;;;;;1.52;100.00;97959.86;1791651;80;21052;-75
2022/03/04 09:31:40;;;;;;;21.27;10.10;;;;;;;1.55;100.00;97954.72;1791245;80;21044;-74
2022/03/04 09:34:07;;;;;;;21.37;11.23;;;;;;;1.56;100.00;97957.70;1791101;80;21044;-74
2022/03/04 09:36:34;;;;;;;26.17;11.83;;;;;;;1.59;100.00;97956.88;1790886;80;21007;-74
2022/03/04 09:39:00;;;;;;;20.43;10.70;;;;;;;1.66;100.00;97951.72;1789787;79;21067;-73
2022/03/04 09:41:27;;;;;;;25.07;13.57;;;;;;;1.69;100.00;97956.73;1790028;80;21053;-73
2022/03/04 09:43:55;;;;;;;23.90;13.87;;;;;;;1.68;100.00;97955.91;1789941;80;21017;-75
2022/03/04 09:46:23;;;;;;;24.50;14.37;;;;;;;1.67;100.00;97957.40;1790369;80;21418;-72
2022/03/04 09:48:50;;;;;;;32.77;19.93;;;;;;;1.63;100.00;97966.70;1790349;80;21530;-75
2022/03/04 09:51:17;;;;;;;22.43;13.20;;;;;;;1.59;100.00;97952.05;1790168;80;21069;-76
2022/03/04 09:53:45;;;;;;;28.20;14.70;;;;;;;1.60;100.00;97953.22;1789289;80;21091;-77
2022/03/04 09:56:13;;;;;;;31.30;18.47;;;;;;;1.63;100.00;97948.91;1789421;80;20991;-74
2022/03/04 09:58:43;;;;;;;35.43;21.40;;;;;;;1.69;100.00;97946.07;1789828;80;21022;-75
2022/03/04 10:01:12;;;;;;;35.90;22.47;;;;;;;1.75;100.00;97953.90;1789749;80;21089;-77
2022/03/04 10:03:47;;;;;;;33.00;20.97;;;;;;;1.76;100.00;97944.91;1773573;81;21050;-77
2022/03/04 10:06:15;;;;;;;39.07;23.37;;;;;;;1.74;100.00;97957.07;1725603;83;21040;-77
2022/03/04 10:08:51;;;;;;;37.07;22.67;;;;;;;1.72;100.00;97947.08;1723324;83;21026;-77
2022/03/04 10:11:30;;;;;;;30.73;18.27;;;;;;;1.73;100.00;97945.24;1721567;83;21049;-78
2022/03/04 10:14:01;;;;;;;34.07;18.43;;;;;;;1.76;100.00;97940.92;1724528;83;21062;-79
2022/03/04 10:16:36;;;;;;;35.77;22.27;;;;;;;1.77;100.00;97943.42;1722352;83;21063;-79
2022/03/04 10:19:09;;;;;;;38.10;24.07;;;;;;;1.74;100.00;97944.25;1720154;83;21002;-75
2022/03/04 10:21:52;;;;;;;33.53;20.82;;;;;;;1.74;100.00;97934.42;1722163;83;21002;-76
2022/03/04 10:24:23;;;;;;;34.70;20.72;;;;;;;1.74;100.00;97935.75;1715868;83;21047;-72
2022/03/04 10:27:09;;;;;;;40.27;24.37;;;;;;;1.77;100.00;97930.09;1725943;83;21016;-75
2022/03/04 10:29:43;;;;;;;29.30;17.43;;;;;;;1.82;100.00;97926.41;1725845;83;21008;-75
2022/03/04 10:32:26;;;;;;;24.63;14.17;;;;;;;1.92;100.00;97922.77;1666516;85;21039;-76
2022/03/04 10:35:04;;;;;;;25.27;13.50;;;;;;;2.01;100.00;97924.41;1649386;87;21035;-75
2022/03/04 10:37:54;;;;;;;24.83;13.43;;;;;;;2.01;100.00;97921.23;1649627;87;21059;-79
2022/03/04 10:40:25;;;;;;;23.30;13.23;;;;;;;2.07;100.00;97922.39;1672440;85;21040;-75
2022/03/04 10:42:55;;;;;;;27.70;13.80;;;;;;;2.15;100.00;97914.39;1684172;85;21009;-76
2022/03/04 10:45:26;;;;;;;21.93;11.37;;;;;;;2.21;100.00;97909.73;1683993;85;21035;-76
2022/03/04 10:48:00;;;;;;;24.90;10.87;;;;;;;2.23;100.00;97901.05;1683927;85;21561;-75
2022/03/04 10:50:32;;;;;;;19.20;9.93;;;;;;;2.28;100.00;97892.52;1684100;85;21020;-74
2022/03/04 10:53:08;;;;;;;20.17;9.35;;;;;;;2.36;100.00;97879.69;1684261;85;21032;-75
2022/03/04 10:55:47;;;;;;;20.63;10.30;;;;;;;2.43;100.00;97868.66;1684550;85;21128;-76
2022/03/04 10:58:27;;;;;;;23.10;10.80;;;;;;;2.41;100.00;97870.67;1684674;85;21088;-75
2022/03/04 11:01:05;;;;;;;21.10;10.53;;;;;;;2.39;100.00;97859.31;1656167;85;21022;-76
2022/03/04 11:03:34;;;;;;;23.77;13.67;;;;;;;2.40;100.00;97844.47;1655715;86;21574;-73
2022/03/04 11:06:03;;;;;;;29.57;16.23;;;;;;;2.46;100.00;97851.80;1658738;86;21022;-74
2022/03/04 11:08:30;;;;;;;27.33;15.37;;;;;;;2.51;100.00;97852.59;1659091;86;21073;-80
2022/03/04 11:10:57;;;;;;;26.53;14.10;;;;;;;2.51;100.00;97844.59;1660080;86;21472;-79
2022/03/04 11:13:24;;;;;;;24.10;12.30;;;;;;;2.49;100.00;97838.61;1660273;85;21074;-77
2022/03/04 11:15:52;;;;;;;23.97;11.90;;;;;;;2.52;100.00;97842.78;1659502;86;21049;-68
2022/03/04 11:18:20;;;;;;;24.90;13.67;;;;;;;2.50;100.00;97837.61;1657992;86;21174;-69
2022/03/04 11:20:51;;;;;;;27.90;15.23;;;;;;;2.51;100.00;97836.59;1658037;86;20990;-67
2022/03/04 11:23:29;;;;;;;28.67;16.50;;;;;;;2.51;100.00;97833.92;1658415;86;21077;-68